sensor_id;sensor_type;location;lat;lon;timestamp;pressure;altitude;pressure_sealevel;temperature;humidity
38939;BME280;24211;49.980;19.776;2023-03-26T00:01:38;98397.53;;;9.25;100.00
38939;BME280;24211;49.980;19.776;2023-03-26T00:04:06;98399.75;;;9.28;100.00
38939;BME280;24211;49.980;19.776;2023-03-26T00:06:37;98391.84;;;9.33;100.00
38939;BME280;24211;49.980;19.776;2023-03-26T00:09:09;98397.25;;;9.38;100.00
38939;BME280;24211;49.980;19.776;2023-03-26T00:11:40;98402.22;;;9.46;100.00
38939;BME280;24211;49.980;19.776;2023-03-26T00:14:09;98401.53;;;9.39;100.00
38939;BME280;24211;49.980;19.776;2023-03-26T00:16:40;98396.19;;;9.39;100.00
38939;BME280;24211;49.980;19.776;2023-03-26T00:19:10;98402.69;;;9.43;100.00
38939;BME280;24211;49.980;19.776;2023-03-26T00:21:38;98406.84;;;9.39;100.00
38939;BME280;24211;49.980;19.776;2023-03-26T00:24:11;98394.91;;;9.41;100.00
38939;BME280;24211;49.980;19.776;2023-03-26T00:26:43;98384.59;;;9.45;100.00
38939;BME280;24211;49.980;19.776;2023-03-26T00:29:12;98390.38;;;9.42;100.00
38939;BME280;24211;49.980;19.776;2023-03-26T00:31:42;98384.03;;;9.43;100.00
38939;BME280;24211;49.980;19.776;2023-03-26T00:34:13;98389.91;;;9.45;100.00
38939;BME280;24211;49.980;19.776;2023-03-26T00:36:45;98377.16;;;9.47;100.00
38939;BME280;24211;49.980;19.776;2023-03-26T00:39:16;98380.88;;;9.46;100.00
38939;BME280;24211;49.980;19.776;2023-03-26T00:41:43;98380.28;;;9.44;100.00
38939;BME280;24211;49.980;19.776;2023-03-26T00:44:11;98370.69;;;9.43;100.00
38939;BME280;24211;49.980;19.776;2023-03-26T00:46:38;98374.28;;;9.37;100.00
38939;BME280;24211;49.980;19.776;2023-03-26T00:49:06;98380.69;;;9.36;100.00
38939;BME280;24211;49.980;19.776;2023-03-26T00:51:37;98379.63;;;9.37;100.00
38939;BME280;24211;49.980;19.776;2023-03-26T00:54:07;98374.19;;;9.32;100.00
38939;BME280;24211;49.980;19.776;2023-03-26T00:56:34;98372.41;;;9.20;100.00
38939;BME280;24211;49.980;19.776;2023-03-26T00:59:02;98365.94;;;9.16;100.00
38939;BME280;24211;49.980;19.776;2023-03-26T01:01:30;98358.44;;;9.13;100.00
38939;BME280;24211;49.980;19.776;2023-03-26T01:04:28;98359.47;;;9.12;100.00
38939;BME280;24211;49.980;19.776;2023-03-26T01:07:14;98350.09;;;9.10;100.00
38939;BME280;24211;49.980;19.776;2023-03-26T01:09:46;98363.19;;;9.11;100.00
38939;BME280;24211;49.980;19.776;2023-03-26T01:12:23;98362.50;;;9.04;100.00
38939;BME280;24211;49.980;19.776;2023-03-26T01:14:55;98359.28;;;9.02;100.00
38939;BME280;24211;49.980;19.776;2023-03-26T01:17:30;98361.47;;;9.05;100.00
38939;BME280;24211;49.980;19.776;2023-03-26T01:20:19;98369.94;;;9.02;100.00
38939;BME280;24211;49.980;19.776;2023-03-26T01:22:59;98373.97;;;9.05;100.00
38939;BME280;24211;49.980;19.776;2023-03-26T01:25:40;98381.41;;;9.03;100.00
38939;BME280;24211;49.980;19.776;2023-03-26T01:28:10;98391.41;;;8.96;100.00
38939;BME280;24211;49.980;19.776;2023-03-26T01:30:54;98405.22;;;8.81;100.00
38939;BME280;24211;49.980;19.776;2023-03-26T01:33:44;98403.25;;;8.77;100.00
38939;BME280;24211;49.980;19.776;2023-03-26T01:36:32;98399.00;;;8.64;100.00
38939;BME280;24211;49.980;19.776;2023-03-26T01:39:58;98399.47;;;8.61;100.00
38939;BME280;24211;49.980;19.776;2023-03-26T01:42:47;98382.88;;;8.71;100.00
38939;BME280;24211;49.980;19.776;2023-03-26T01:45:23;98371.63;;;8.80;100.00
38939;BME280;24211;49.980;19.776;2023-03-26T01:47:53;98363.16;;;8.83;100.00
38939;BME280;24211;49.980;19.776;2023-03-26T01:50:21;98349.38;;;8.86;100.00
38939;BME280;24211;49.980;19.776;2023-03-26T01:52:49;98350.50;;;8.90;100.00
38939;BME280;24211;49.980;19.776;2023-03-26T01:55:17;98352.47;;;8.95;100.00
38939;BME280;24211;49.980;19.776;2023-03-26T01:57:58;98347.47;;;8.98;100.00
38939;BME280;24211;49.980;19.776;2023-03-26T02:00:41;98343.75;;;8.99;100.00
38939;BME280;24211;49.980;19.776;2023-03-26T02:03:28;98348.84;;;9.01;100.00
38939;BME280;24211;49.980;19.776;2023-03-26T02:06:29;98350.72;;;9.00;100.00
38939;BME280;24211;49.980;19.776;2023-03-26T02:09:08;98348.84;;;9.01;100.00
38939;BME280;24211;49.980;19.776;2023-03-26T02:11:39;98348.03;;;9.00;100.00
38939;BME280;24211;49.980;19.776;2023-03-26T02:14:08;98352.81;;;8.98;100.00
38939;BME280;24211;49.980;19.776;2023-03-26T02:16:36;98342.16;;;8.98;100.00
38939;BME280;24211;49.980;19.776;2023-03-26T02:19:03;98349.06;;;8.99;100.00
38939;BME280;24211;49.980;19.776;2023-03-26T02:21:31;98333.09;;;8.99;100.00
38939;BME280;24211;49.980;19.776;2023-03-26T02:24:01;98332.78;;;8.96;100.00
38939;BME280;24211;49.980;19.776;2023-03-26T02:26:35;98338.09;;;8.96;100.00
38939;BME280;24211;49.980;19.776;2023-03-26T02:29:12;98345.28;;;8.95;100.00
38939;BME280;24211;49.980;19.776;2023-03-26T02:31:42;98336.47;;;8.95;100.00
38939;BME280;24211;49.980;19.776;2023-03-26T02:34:10;98333.00;;;8.94;100.00
38939;BME280;24211;49.980;19.776;2023-03-26T02:36:41;98337.28;;;8.95;100.00
38939;BME280;24211;49.980;19.776;2023-03-26T02:39:10;98340.97;;;8.94;100.00
38939;BME280;24211;49.980;19.776;2023-03-26T02:41:43;98344.72;;;8.93;100.00
38939;BME280;24211;49.980;19.776;2023-03-26T02:44:11;98339.84;;;8.90;100.00
38939;BME280;24211;49.980;19.776;2023-03-26T02:47:11;98339.84;;;8.90;100.00
38939;BME280;24211;49.980;19.776;2023-03-26T02:49:57;98336.16;;;8.91;100.00
38939;BME280;24211;49.980;19.776;2023-03-26T02:52:35;98343.09;;;8.92;100.00
38939;BME280;24211;49.980;19.776;2023-03-26T02:55:03;98344.38;;;8.90;100.00
38939;BME280;24211;49.980;19.776;2023-03-26T02:57:31;98346.25;;;8.89;100.00
38939;BME280;24211;49.980;19.776;2023-03-26T03:00:15;98332.91;;;8.89;100.00
38939;BME280;24211;49.980;19.776;2023-03-26T03:02:47;98331.28;;;8.88;100.00
38939;BME280;24211;49.980;19.776;2023-03-26T03:05:32;98331.28;;;8.88;100.00
38939;BME280;24211;49.980;19.776;2023-03-26T03:08:38;98333.59;;;8.85;100.00
38939;BME280;24211;49.980;19.776;2023-03-26T03:11:29;98327.72;;;8.83;100.00
38939;BME280;24211;49.980;19.776;2023-03-26T03:13:57;98331.19;;;8.83;100.00
38939;BME280;24211;49.980;19.776;2023-03-26T03:16:26;98326.91;;;8.82;100.00
38939;BME280;24211;49.980;19.776;2023-03-26T03:18:57;98328.53;;;8.83;100.00
38939;BME280;24211;49.980;19.776;2023-03-26T03:21:34;98334.88;;;8.82;100.00
38939;BME280;24211;49.980;19.776;2023-03-26T03:24:01;98329.00;;;8.80;100.00
38939;BME280;24211;49.980;19.776;2023-03-26T03:26:33;98319.97;;;8.81;100.00
38939;BME280;24211;49.980;19.776;2023-03-26T03:29:31;98319.97;;;8.81;100.00
38939;BME280;24211;49.980;19.776;2023-03-26T03:32:19;98319.97;;;8.81;100.00
38939;BME280;24211;49.980;19.776;2023-03-26T03:34:50;98326.13;;;8.82;100.00
38939;BME280;24211;49.980;19.776;2023-03-26T03:37:19;98321.25;;;8.79;100.00
38939;BME280;24211;49.980;19.776;2023-03-26T03:39:51;98334.31;;;8.80;100.00
38939;BME280;24211;49.980;19.776;2023-03-26T03:42:21;98335.38;;;8.79;100.00
38939;BME280;24211;49.980;19.776;2023-03-26T03:44:51;98333.50;;;8.80;100.00
38939;BME280;24211;49.980;19.776;2023-03-26T03:47:51;98338.06;;;8.79;100.00
38939;BME280;24211;49.980;19.776;2023-03-26T03:50:30;98331.09;;;8.78;100.00
38939;BME280;24211;49.980;19.776;2023-03-26T03:53:27;98335.38;;;8.79;100.00
38939;BME280;24211;49.980;19.776;2023-03-26T03:55:58;98324.94;;;8.78;100.00
38939;BME280;24211;49.980;19.776;2023-03-26T03:58:49;98337.00;;;8.80;100.00
38939;BME280;24211;49.980;19.776;2023-03-26T04:01:26;98334.56;;;8.79;100.00
38939;BME280;24211;49.980;19.776;2023-03-26T04:04:06;98333.50;;;8.80;100.00
38939;BME280;24211;49.980;19.776;2023-03-26T04:06:56;98332.72;;;8.79;100.00
38939;BME280;24211;49.980;19.776;2023-03-26T04:09:29;98329.00;;;8.80;100.00
38939;BME280;24211;49.980;19.776;2023-03-26T04:12:01;98330.63;;;8.81;100.00
38939;BME280;24211;49.980;19.776;2023-03-26T04:14:37;98333.50;;;8.80;100.00
38939;BME280;24211;49.980;19.776;2023-03-26T04:17:14;98329.00;;;8.80;100.00
38939;BME280;24211;49.980;19.776;2023-03-26T04:19:44;98329.00;;;8.80;100.00
38939;BME280;24211;49.980;19.776;2023-03-26T04:22:13;98323.66;;;8.80;100.00
38939;BME280;24211;49.980;19.776;2023-03-26T04:24:50;98320.44;;;8.78;100.00
38939;BME280;24211;49.980;19.776;2023-03-26T04:27:31;98320.44;;;8.78;100.00
38939;BME280;24211;49.980;19.776;2023-03-26T04:30:18;98320.44;;;8.78;100.00
38939;BME280;24211;49.980;19.776;2023-03-26T04:33:04;98324.13;;;8.77;100.00
38939;BME280;24211;49.980;19.776;2023-03-26T04:35:37;98315.56;;;8.75;100.00
38939;BME280;24211;49.980;19.776;2023-03-26T04:38:10;98311.88;;;8.76;100.00
38939;BME280;24211;49.980;19.776;2023-03-26T04:40:44;98311.88;;;8.76;100.00
38939;BME280;24211;49.980;19.776;2023-03-26T04:43:31;98305.72;;;8.76;100.00
38939;BME280;24211;49.980;19.776;2023-03-26T04:46:04;98296.13;;;8.75;100.00
38939;BME280;24211;49.980;19.776;2023-03-26T04:48:38;98295.53;;;8.73;100.00
38939;BME280;24211;49.980;19.776;2023-03-26T04:51:08;98299.28;;;8.72;100.00
38939;BME280;24211;49.980;19.776;2023-03-26T04:53:57;98310.75;;;8.72;100.00
38939;BME280;24211;49.980;19.776;2023-03-26T04:56:58;98310.75;;;8.72;100.00
38939;BME280;24211;49.980;19.776;2023-03-26T04:59:33;98309.13;;;8.71;100.00
38939;BME280;24211;49.980;19.776;2023-03-26T05:02:05;98310.97;;;8.71;100.00
38939;BME280;24211;49.980;19.776;2023-03-26T05:04:44;98312.81;;;8.70;100.00
38939;BME280;24211;49.980;19.776;2023-03-26T05:07:19;98321.88;;;8.69;100.00
38939;BME280;24211;49.980;19.776;2023-03-26T05:09:50;98314.91;;;8.68;100.00
38939;BME280;24211;49.980;19.776;2023-03-26T05:12:22;98316.53;;;8.69;100.00
38939;BME280;24211;49.980;19.776;2023-03-26T05:15:04;98323.47;;;8.70;100.00
38939;BME280;24211;49.980;19.776;2023-03-26T05:17:43;98325.09;;;8.71;100.00
38939;BME280;24211;49.980;19.776;2023-03-26T05:20:25;98313.63;;;8.71;100.00
38939;BME280;24211;49.980;19.776;2023-03-26T05:22:53;98316.84;;;8.73;100.00
38939;BME280;24211;49.980;19.776;2023-03-26T05:25:25;98312.34;;;8.73;100.00
38939;BME280;24211;49.980;19.776;2023-03-26T05:27:54;98307.03;;;8.73;100.00
38939;BME280;24211;49.980;19.776;2023-03-26T05:30:25;98313.16;;;8.74;100.00
38939;BME280;24211;49.980;19.776;2023-03-26T05:32:58;98311.88;;;8.76;100.00
38939;BME280;24211;49.980;19.776;2023-03-26T05:35:30;98318.03;;;8.77;100.00
38939;BME280;24211;49.980;19.776;2023-03-26T05:37:58;98319.63;;;8.78;100.00
38939;BME280;24211;49.980;19.776;2023-03-26T05:40:25;98316.50;;;8.81;100.00
38939;BME280;24211;49.980;19.776;2023-03-26T05:42:56;98312.53;;;8.83;100.00
38939;BME280;24211;49.980;19.776;2023-03-26T05:45:46;98313.34;;;8.84;100.00
38939;BME280;24211;49.980;19.776;2023-03-26T05:48:23;98304.66;;;8.88;100.00
38939;BME280;24211;49.980;19.776;2023-03-26T05:50:54;98307.41;;;8.93;100.00
38939;BME280;24211;49.980;19.776;2023-03-26T05:53:25;98310.63;;;8.95;100.00
38939;BME280;24211;49.980;19.776;2023-03-26T05:56:28;98310.63;;;8.95;100.00
38939;BME280;24211;49.980;19.776;2023-03-26T05:59:14;98308.06;;;9.00;100.00
38939;BME280;24211;49.980;19.776;2023-03-26T06:02:02;98301.09;;;8.99;100.00
38939;BME280;24211;49.980;19.776;2023-03-26T06:04:50;98310.47;;;9.02;100.00
38939;BME280;24211;49.980;19.776;2023-03-26T06:07:49;98316.63;;;9.02;100.00
38939;BME280;24211;49.980;19.776;2023-03-26T06:10:18;98307.13;;;9.06;100.00
38939;BME280;24211;49.980;19.776;2023-03-26T06:12:46;98310.66;;;9.12;100.00
38939;BME280;24211;49.980;19.776;2023-03-26T06:15:13;98316.34;;;9.15;100.00
38939;BME280;24211;49.980;19.776;2023-03-26T06:18:04;98320.03;;;9.14;100.00
38939;BME280;24211;49.980;19.776;2023-03-26T06:20:47;98326.19;;;9.15;100.00
38939;BME280;24211;49.980;19.776;2023-03-26T06:23:23;98315.28;;;9.16;100.00
38939;BME280;24211;49.980;19.776;2023-03-26T06:26:04;98308.91;;;9.17;100.00
38939;BME280;24211;49.980;19.776;2023-03-26T06:28:51;98321.19;;;9.18;100.00
38939;BME280;24211;49.980;19.776;2023-03-26T06:31:33;98317.81;;;9.23;100.00
38939;BME280;24211;49.980;19.776;2023-03-26T06:34:17;98319.94;;;9.38;100.00
38939;BME280;24211;49.980;19.776;2023-03-26T06:36:44;98326.94;;;9.44;100.00
38939;BME280;24211;49.980;19.776;2023-03-26T06:39:11;98324.38;;;9.49;100.00
38939;BME280;24211;49.980;19.776;2023-03-26T06:41:48;98323.06;;;9.51;100.00
38939;BME280;24211;49.980;19.776;2023-03-26T06:44:44;98326.09;;;9.55;100.00
38939;BME280;24211;49.980;19.776;2023-03-26T06:47:32;98330.44;;;9.61;100.00
38939;BME280;24211;49.980;19.776;2023-03-26T06:50:32;98326.25;;;9.65;100.00
38939;BME280;24211;49.980;19.776;2023-03-26T06:53:12;98334.00;;;9.66;100.00
38939;BME280;24211;49.980;19.776;2023-03-26T06:55:56;98329.97;;;9.64;100.00
38939;BME280;24211;49.980;19.776;2023-03-26T06:58:42;98336.44;;;9.68;100.00
38939;BME280;24211;49.980;19.776;2023-03-26T07:01:28;98332.78;;;9.74;100.00
38939;BME280;24211;49.980;19.776;2023-03-26T07:04:14;98336.09;;;9.81;100.00
38939;BME280;24211;49.980;19.776;2023-03-26T07:07:01;98335.63;;;9.84;100.00
38939;BME280;24211;49.980;19.776;2023-03-26T07:09:47;98336.75;;;9.88;100.00
38939;BME280;24211;49.980;19.776;2023-03-26T07:12:33;98333.66;;;9.96;100.00
38939;BME280;24211;49.980;19.776;2023-03-26T07:15:19;98330.03;;;10.02;100.00
38939;BME280;24211;49.980;19.776;2023-03-26T07:17:47;98336.50;;;10.06;100.00
38939;BME280;24211;49.980;19.776;2023-03-26T07:20:21;98332.19;;;10.05;100.00
38939;BME280;24211;49.980;19.776;2023-03-26T07:22:49;98330.91;;;10.08;100.00
38939;BME280;24211;49.980;19.776;2023-03-26T07:25:43;98330.41;;;10.11;100.00
38939;BME280;24211;49.980;19.776;2023-03-26T07:28:45;98316.13;;;10.17;100.00
38939;BME280;24211;49.980;19.776;2023-03-26T07:32:22;98317.09;;;10.49;100.00
38939;BME280;24211;49.980;19.776;2023-03-26T07:35:40;98306.94;;;10.73;100.00
38939;BME280;24211;49.980;19.776;2023-03-26T07:46:12;98297.91;;;11.27;100.00
38939;BME280;24211;49.980;19.776;2023-03-26T07:49:00;98292.56;;;11.27;100.00
38939;BME280;24211;49.980;19.776;2023-03-26T07:51:37;98290.81;;;11.43;100.00
38939;BME280;24211;49.980;19.776;2023-03-26T07:54:22;98289.03;;;11.53;100.00
38939;BME280;24211;49.980;19.776;2023-03-26T07:57:40;98292.19;;;11.50;100.00
38939;BME280;24211;49.980;19.776;2023-03-26T08:00:51;98285.22;;;11.44;100.00
38939;BME280;24211;49.980;19.776;2023-03-26T08:06:34;98292.88;;;11.67;100.00
38939;BME280;24211;49.980;19.776;2023-03-26T08:09:42;98280.28;;;12.00;100.00
38939;BME280;24211;49.980;19.776;2023-03-26T08:12:45;98284.72;;;12.26;100.00
38939;BME280;24211;49.980;19.776;2023-03-26T08:21:18;98269.31;;;12.63;100.00
38939;BME280;24211;49.980;19.776;2023-03-26T08:24:12;98273.88;;;12.58;100.00
38939;BME280;24211;49.980;19.776;2023-03-26T08:29:54;98284.91;;;12.66;100.00
38939;BME280;24211;49.980;19.776;2023-03-26T08:32:28;98282.19;;;12.61;100.00
38939;BME280;24211;49.980;19.776;2023-03-26T08:34:56;98289.69;;;12.59;100.00
38939;BME280;24211;49.980;19.776;2023-03-26T08:37:26;98290.16;;;12.46;100.00
38939;BME280;24211;49.980;19.776;2023-03-26T08:39:55;98286.38;;;12.37;100.00
38939;BME280;24211;49.980;19.776;2023-03-26T08:42:56;98288.16;;;12.21;100.00
38939;BME280;24211;49.980;19.776;2023-03-26T08:46:07;98279.38;;;12.26;100.00
38939;BME280;24211;49.980;19.776;2023-03-26T08:58:30;98287.72;;;12.34;100.00
38939;BME280;24211;49.980;19.776;2023-03-26T09:11:06;98264.94;;;12.37;100.00
38939;BME280;24211;49.980;19.776;2023-03-26T09:26:23;98263.88;;;13.55;85.97
38939;BME280;24211;49.980;19.776;2023-03-26T09:29:32;98259.84;;;13.83;86.81
38939;BME280;24211;49.980;19.776;2023-03-26T09:32:49;98253.38;;;13.84;83.63
38939;BME280;24211;49.980;19.776;2023-03-26T09:35:49;98266.56;;;13.86;79.64
38939;BME280;24211;49.980;19.776;2023-03-26T09:39:02;98260.38;;;13.55;77.55
38939;BME280;24211;49.980;19.776;2023-03-26T09:54:38;98253.16;;;13.40;81.02
38939;BME280;24211;49.980;19.776;2023-03-26T10:00:29;98249.13;;;13.48;81.01
38939;BME280;24211;49.980;19.776;2023-03-26T10:03:37;98246.97;;;13.75;78.03
38939;BME280;24211;49.980;19.776;2023-03-26T10:06:24;98231.91;;;13.84;77.40
38939;BME280;24211;49.980;19.776;2023-03-26T10:12:21;98232.16;;;13.88;71.82
38939;BME280;24211;49.980;19.776;2023-03-26T10:15:26;98227.59;;;13.88;71.36
38939;BME280;24211;49.980;19.776;2023-03-26T10:21:41;98216.03;;;13.98;72.89
38939;BME280;24211;49.980;19.776;2023-03-26T10:24:32;98223.31;;;13.82;73.48
38939;BME280;24211;49.980;19.776;2023-03-26T10:27:36;98219.00;;;13.76;73.48
38939;BME280;24211;49.980;19.776;2023-03-26T10:33:27;98213.09;;;13.79;73.34
38939;BME280;24211;49.980;19.776;2023-03-26T10:39:11;98211.44;;;13.93;73.37
38939;BME280;24211;49.980;19.776;2023-03-26T10:50:53;98201.47;;;14.73;66.63
38939;BME280;24211;49.980;19.776;2023-03-26T10:56:39;98200.47;;;14.64;63.07
38939;BME280;24211;49.980;19.776;2023-03-26T10:59:14;98198.63;;;14.54;62.43
38939;BME280;24211;49.980;19.776;2023-03-26T11:01:56;98198.38;;;14.51;62.88
38939;BME280;24211;49.980;19.776;2023-03-26T11:04:54;98193.00;;;14.51;62.66
38939;BME280;24211;49.980;19.776;2023-03-26T11:07:39;98188.13;;;14.58;63.26
38939;BME280;24211;49.980;19.776;2023-03-26T11:10:38;98191.91;;;14.57;63.12
38939;BME280;24211;49.980;19.776;2023-03-26T11:22:34;98177.31;;;14.68;59.48
38939;BME280;24211;49.980;19.776;2023-03-26T11:33:46;98172.53;;;14.98;57.30
38939;BME280;24211;49.980;19.776;2023-03-26T11:36:21;98173.91;;;14.96;57.95
38939;BME280;24211;49.980;19.776;2023-03-26T11:38:52;98172.13;;;14.81;57.53
38939;BME280;24211;49.980;19.776;2023-03-26T11:41:28;98173.72;;;14.82;58.03
38939;BME280;24211;49.980;19.776;2023-03-26T11:44:25;98167.28;;;14.78;58.56
38939;BME280;24211;49.980;19.776;2023-03-26T11:47:04;98159.72;;;14.85;59.27
38939;BME280;24211;49.980;19.776;2023-03-26T11:49:38;98156.09;;;15.00;59.79
38939;BME280;24211;49.980;19.776;2023-03-26T11:52:10;98144.63;;;15.23;57.66
38939;BME280;24211;49.980;19.776;2023-03-26T11:54:38;98145.34;;;15.29;57.21
38939;BME280;24211;49.980;19.776;2023-03-26T11:57:12;98144.28;;;15.30;56.83
38939;BME280;24211;49.980;19.776;2023-03-26T11:59:45;98142.75;;;15.52;56.41
38939;BME280;24211;49.980;19.776;2023-03-26T12:02:30;98143.38;;;15.68;55.72
38939;BME280;24211;49.980;19.776;2023-03-26T12:05:14;98132.28;;;15.75;54.67
38939;BME280;24211;49.980;19.776;2023-03-26T12:08:00;98142.00;;;15.70;54.60
38939;BME280;24211;49.980;19.776;2023-03-26T12:10:36;98136.50;;;15.81;54.61
38939;BME280;24211;49.980;19.776;2023-03-26T12:13:34;98135.59;;;15.66;55.11
38939;BME280;24211;49.980;19.776;2023-03-26T12:16:16;98130.31;;;15.56;54.90
38939;BME280;24211;49.980;19.776;2023-03-26T12:18:56;98135.56;;;15.43;54.94
38939;BME280;24211;49.980;19.776;2023-03-26T12:21:23;98124.03;;;15.37;55.28
38939;BME280;24211;49.980;19.776;2023-03-26T12:24:02;98117.88;;;15.32;55.04
38939;BME280;24211;49.980;19.776;2023-03-26T12:26:41;98119.91;;;15.16;55.42
38939;BME280;24211;49.980;19.776;2023-03-26T12:29:13;98132.19;;;14.98;56.49
38939;BME280;24211;49.980;19.776;2023-03-26T12:34:20;98122.91;;;14.81;58.94
38939;BME280;24211;49.980;19.776;2023-03-26T12:36:53;98119.03;;;14.92;58.42
38939;BME280;24211;49.980;19.776;2023-03-26T12:39:39;98119.00;;;14.97;57.94
38939;BME280;24211;49.980;19.776;2023-03-26T12:42:32;98110.84;;;15.07;57.24
38939;BME280;24211;49.980;19.776;2023-03-26T12:45:55;98109.72;;;15.13;56.76
38939;BME280;24211;49.980;19.776;2023-03-26T12:48:44;98113.53;;;15.07;57.43
38939;BME280;24211;49.980;19.776;2023-03-26T12:58:02;98085.13;;;15.25;55.44
38939;BME280;24211;49.980;19.776;2023-03-26T13:01:17;98077.09;;;15.43;53.72
38939;BME280;24211;49.980;19.776;2023-03-26T13:04:15;98076.81;;;15.50;53.09
38939;BME280;24211;49.980;19.776;2023-03-26T13:07:02;98071.53;;;15.63;53.42
38939;BME280;24211;49.980;19.776;2023-03-26T13:13:48;98063.56;;;15.77;51.31
38939;BME280;24211;49.980;19.776;2023-03-26T13:16:54;98061.44;;;15.74;52.52
38939;BME280;24211;49.980;19.776;2023-03-26T13:23:08;98057.84;;;15.60;50.43
38939;BME280;24211;49.980;19.776;2023-03-26T13:26:22;98060.88;;;15.53;50.59
38939;BME280;24211;49.980;19.776;2023-03-26T13:32:48;98044.25;;;15.46;53.16
38939;BME280;24211;49.980;19.776;2023-03-26T13:35:31;98046.94;;;15.46;53.79
38939;BME280;24211;49.980;19.776;2023-03-26T13:47:00;98031.06;;;15.68;54.36
38939;BME280;24211;49.980;19.776;2023-03-26T13:49:43;98041.28;;;15.72;53.24
38939;BME280;24211;49.980;19.776;2023-03-26T13:52:44;98035.06;;;15.71;54.41
38939;BME280;24211;49.980;19.776;2023-03-26T13:55:40;98032.69;;;15.69;53.99
38939;BME280;24211;49.980;19.776;2023-03-26T13:58:19;98032.69;;;15.69;53.51
38939;BME280;24211;49.980;19.776;2023-03-26T14:01:15;98033.25;;;15.66;52.92
38939;BME280;24211;49.980;19.776;2023-03-26T14:10:04;98022.59;;;15.56;53.19
38939;BME280;24211;49.980;19.776;2023-03-26T14:12:59;98024.78;;;15.54;53.82
38939;BME280;24211;49.980;19.776;2023-03-26T14:15:49;98020.53;;;15.48;54.40
38939;BME280;24211;49.980;19.776;2023-03-26T14:18:37;98027.06;;;15.42;54.58
38939;BME280;24211;49.980;19.776;2023-03-26T14:21:39;98021.28;;;15.30;55.38
38939;BME280;24211;49.980;19.776;2023-03-26T14:27:43;98023.63;;;15.13;55.47
38939;BME280;24211;49.980;19.776;2023-03-26T14:30:47;98024.75;;;15.07;55.79
38939;BME280;24211;49.980;19.776;2023-03-26T14:34:10;98022.59;;;15.04;56.95
38939;BME280;24211;49.980;19.776;2023-03-26T14:36:56;98025.34;;;14.99;57.96
38939;BME280;24211;49.980;19.776;2023-03-26T14:45:57;98021.00;;;14.74;59.87
38939;BME280;24211;49.980;19.776;2023-03-26T14:48:57;98024.00;;;14.73;61.04
38939;BME280;24211;49.980;19.776;2023-03-26T14:52:10;98017.84;;;14.67;61.37
38939;BME280;24211;49.980;19.776;2023-03-26T14:54:44;98019.50;;;14.63;60.70
38939;BME280;24211;49.980;19.776;2023-03-26T14:57:56;97999.34;;;14.61;61.53
38939;BME280;24211;49.980;19.776;2023-03-26T15:01:20;98003.94;;;14.60;61.20
38939;BME280;24211;49.980;19.776;2023-03-26T15:07:44;97999.94;;;14.53;61.02
38939;BME280;24211;49.980;19.776;2023-03-26T15:35:44;97993.38;;;14.30;70.46
38939;BME280;24211;49.980;19.776;2023-03-26T15:42:07;97989.69;;;14.21;67.37
38939;BME280;24211;49.980;19.776;2023-03-26T15:44:52;97987.31;;;14.19;65.88
38939;BME280;24211;49.980;19.776;2023-03-26T15:48:10;97986.50;;;14.19;64.64
38939;BME280;24211;49.980;19.776;2023-03-26T15:56:46;97980.31;;;14.18;64.55
38939;BME280;24211;49.980;19.776;2023-03-26T16:02:38;97967.16;;;14.17;64.10
38939;BME280;24211;49.980;19.776;2023-03-26T16:08:33;97954.81;;;14.16;61.83
38939;BME280;24211;49.980;19.776;2023-03-26T16:11:09;97955.59;;;14.16;61.72
38939;BME280;24211;49.980;19.776;2023-03-26T16:13:48;97957.22;;;14.17;62.00
38939;BME280;24211;49.980;19.776;2023-03-26T16:16:24;97958.59;;;14.15;62.55
38939;BME280;24211;49.980;19.776;2023-03-26T16:21:59;97955.66;;;14.11;62.29
38939;BME280;24211;49.980;19.776;2023-03-26T16:24:33;97959.94;;;14.12;62.77
38939;BME280;24211;49.980;19.776;2023-03-26T16:30:06;97955.13;;;14.09;63.38
38939;BME280;24211;49.980;19.776;2023-03-26T16:32:44;97955.69;;;14.06;64.23
38939;BME280;24211;49.980;19.776;2023-03-26T16:37:48;97958.41;;;14.01;65.98
38939;BME280;24211;49.980;19.776;2023-03-26T16:43:18;97959.53;;;13.95;67.50
38939;BME280;24211;49.980;19.776;2023-03-26T16:49:24;97963.63;;;13.88;69.14
38939;BME280;24211;49.980;19.776;2023-03-26T16:52:20;97954.78;;;13.82;69.58
38939;BME280;24211;49.980;19.776;2023-03-26T16:55:03;97957.50;;;13.77;71.04
38939;BME280;24211;49.980;19.776;2023-03-26T17:00:59;97955.38;;;13.69;74.68
38939;BME280;24211;49.980;19.776;2023-03-26T17:03:45;97950.03;;;13.64;76.36
38939;BME280;24211;49.980;19.776;2023-03-26T17:06:35;97951.41;;;13.56;76.46
38939;BME280;24211;49.980;19.776;2023-03-26T17:12:18;97946.91;;;13.47;78.14
38939;BME280;24211;49.980;19.776;2023-03-26T17:21:40;97942.72;;;13.26;80.34
38939;BME280;24211;49.980;19.776;2023-03-26T17:27:46;97954.03;;;13.13;82.45
38939;BME280;24211;49.980;19.776;2023-03-26T17:31:02;97947.09;;;13.06;82.71
38939;BME280;24211;49.980;19.776;2023-03-26T17:33:35;97951.34;;;13.02;83.70
38939;BME280;24211;49.980;19.776;2023-03-26T17:41:47;97954.88;;;12.88;86.40
38939;BME280;24211;49.980;19.776;2023-03-26T17:45:33;97959.47;;;12.82;87.77
38939;BME280;24211;49.980;19.776;2023-03-26T17:48:04;97954.13;;;12.77;87.38
38939;BME280;24211;49.980;19.776;2023-03-26T17:50:56;97964.84;;;12.72;88.07
38939;BME280;24211;49.980;19.776;2023-03-26T17:53:29;97971.03;;;12.68;88.21
38939;BME280;24211;49.980;19.776;2023-03-26T17:56:05;97953.88;;;12.64;88.54
38939;BME280;24211;49.980;19.776;2023-03-26T17:58:43;97951.19;;;12.59;87.98
38939;BME280;24211;49.980;19.776;2023-03-26T18:01:34;97954.69;;;12.54;89.29
38939;BME280;24211;49.980;19.776;2023-03-26T18:04:20;97957.38;;;12.49;90.92
38939;BME280;24211;49.980;19.776;2023-03-26T18:14:14;97961.69;;;12.35;93.43